sensor_id;sensor_type;location;lat;lon;timestamp;P1;durP1;ratioP1;P2;durP2;ratioP2
6374;SDS011;35400;45.472;-122.822;2023-04-24T00:01:27;6.50;;;2.50;;
6374;SDS011;35400;45.472;-122.822;2023-04-24T00:03:55;12.63;;;3.50;;
6374;SDS011;35400;45.472;-122.822;2023-04-24T00:06:25;7.90;;;3.27;;
6374;SDS011;35400;45.472;-122.822;2023-04-24T00:09:15;5.73;;;2.97;;
6374;SDS011;35400;45.472;-122.822;2023-04-24T00:11:41;9.20;;;3.20;;
6374;SDS011;35400;45.472;-122.822;2023-04-24T00:14:08;10.83;;;3.40;;
6374;SDS011;35400;45.472;-122.822;2023-04-24T00:16:35;8.83;;;3.67;;
6374;SDS011;35400;45.472;-122.822;2023-04-24T00:19:02;7.73;;;3.43;;
6374;SDS011;35400;45.472;-122.822;2023-04-24T00:21:28;9.73;;;3.50;;
6374;SDS011;35400;45.472;-122.822;2023-04-24T00:23:55;5.73;;;3.20;;
6374;SDS011;35400;45.472;-122.822;2023-04-24T00:26:22;7.07;;;3.17;;
6374;SDS011;35400;45.472;-122.822;2023-04-24T00:28:49;10.73;;;4.03;;
6374;SDS011;35400;45.472;-122.822;2023-04-24T00:31:16;9.70;;;2.90;;
6374;SDS011;35400;45.472;-122.822;2023-04-24T00:33:43;8.07;;;3.67;;
6374;SDS011;35400;45.472;-122.822;2023-04-24T00:36:10;6.60;;;3.40;;
6374;SDS011;35400;45.472;-122.822;2023-04-24T00:38:36;9.17;;;3.77;;
6374;SDS011;35400;45.472;-122.822;2023-04-24T00:41:03;13.23;;;3.73;;
6374;SDS011;35400;45.472;-122.822;2023-04-24T00:43:30;6.50;;;3.10;;
6374;SDS011;35400;45.472;-122.822;2023-04-24T00:45:57;10.60;;;3.27;;
6374;SDS011;35400;45.472;-122.822;2023-04-24T00:48:25;6.20;;;3.03;;
6374;SDS011;35400;45.472;-122.822;2023-04-24T00:50:52;6.80;;;3.50;;
6374;SDS011;35400;45.472;-122.822;2023-04-24T00:53:20;7.73;;;3.17;;
6374;SDS011;35400;45.472;-122.822;2023-04-24T00:55:46;10.33;;;3.80;;
6374;SDS011;35400;45.472;-122.822;2023-04-24T00:58:13;7.23;;;3.40;;
6374;SDS011;35400;45.472;-122.822;2023-04-24T01:00:40;8.83;;;3.43;;
6374;SDS011;35400;45.472;-122.822;2023-04-24T01:03:08;12.27;;;3.70;;
6374;SDS011;35400;45.472;-122.822;2023-04-24T01:05:36;9.70;;;3.87;;
6374;SDS011;35400;45.472;-122.822;2023-04-24T01:08:03;9.53;;;3.60;;
6374;SDS011;35400;45.472;-122.822;2023-04-24T01:10:30;10.97;;;4.03;;
6374;SDS011;35400;45.472;-122.822;2023-04-24T01:12:58;8.20;;;3.20;;
6374;SDS011;35400;45.472;-122.822;2023-04-24T01:15:25;4.87;;;3.10;;
6374;SDS011;35400;45.472;-122.822;2023-04-24T01:17:52;4.87;;;2.10;;
6374;SDS011;35400;45.472;-122.822;2023-04-24T01:20:20;7.77;;;2.60;;
6374;SDS011;35400;45.472;-122.822;2023-04-24T01:22:47;8.30;;;3.03;;
6374;SDS011;35400;45.472;-122.822;2023-04-24T01:25:14;7.80;;;2.00;;
6374;SDS011;35400;45.472;-122.822;2023-04-24T01:27:41;6.47;;;2.47;;
6374;SDS011;35400;45.472;-122.822;2023-04-24T01:30:08;6.53;;;2.30;;
6374;SDS011;35400;45.472;-122.822;2023-04-24T01:32:36;7.03;;;2.03;;
6374;SDS011;35400;45.472;-122.822;2023-04-24T01:35:03;8.27;;;2.27;;
6374;SDS011;35400;45.472;-122.822;2023-04-24T01:37:31;4.37;;;1.93;;
6374;SDS011;35400;45.472;-122.822;2023-04-24T01:39:58;8.90;;;2.33;;
6374;SDS011;35400;45.472;-122.822;2023-04-24T01:42:25;3.77;;;2.07;;
6374;SDS011;35400;45.472;-122.822;2023-04-24T01:44:52;4.93;;;1.80;;
6374;SDS011;35400;45.472;-122.822;2023-04-24T01:47:20;7.10;;;2.63;;
6374;SDS011;35400;45.472;-122.822;2023-04-24T01:49:47;4.03;;;2.40;;
6374;SDS011;35400;45.472;-122.822;2023-04-24T01:52:16;4.90;;;2.23;;
6374;SDS011;35400;45.472;-122.822;2023-04-24T01:54:44;4.37;;;2.27;;
6374;SDS011;35400;45.472;-122.822;2023-04-24T01:57:11;7.17;;;3.50;;
6374;SDS011;35400;45.472;-122.822;2023-04-24T01:59:38;6.77;;;2.43;;
6374;SDS011;35400;45.472;-122.822;2023-04-24T02:02:04;7.27;;;2.87;;
6374;SDS011;35400;45.472;-122.822;2023-04-24T02:04:31;6.63;;;2.53;;
6374;SDS011;35400;45.472;-122.822;2023-04-24T02:06:58;6.87;;;2.23;;
6374;SDS011;35400;45.472;-122.822;2023-04-24T02:09:25;5.63;;;2.90;;
6374;SDS011;35400;45.472;-122.822;2023-04-24T02:11:52;5.63;;;3.13;;
6374;SDS011;35400;45.472;-122.822;2023-04-24T02:14:19;6.60;;;2.90;;
6374;SDS011;35400;45.472;-122.822;2023-04-24T02:16:46;4.83;;;1.63;;
6374;SDS011;35400;45.472;-122.822;2023-04-24T02:19:12;15.97;;;10.17;;
6374;SDS011;35400;45.472;-122.822;2023-04-24T02:21:39;11.53;;;8.10;;
6374;SDS011;35400;45.472;-122.822;2023-04-24T02:24:07;6.83;;;2.80;;
6374;SDS011;35400;45.472;-122.822;2023-04-24T02:26:34;3.40;;;2.20;;
6374;SDS011;35400;45.472;-122.822;2023-04-24T02:29:01;7.37;;;3.20;;
6374;SDS011;35400;45.472;-122.822;2023-04-24T02:31:28;8.70;;;3.37;;
6374;SDS011;35400;45.472;-122.822;2023-04-24T02:33:55;7.93;;;2.80;;
6374;SDS011;35400;45.472;-122.822;2023-04-24T02:36:22;6.50;;;3.07;;
6374;SDS011;35400;45.472;-122.822;2023-04-24T02:38:48;3.97;;;2.20;;
6374;SDS011;35400;45.472;-122.822;2023-04-24T02:41:15;6.40;;;2.97;;
6374;SDS011;35400;45.472;-122.822;2023-04-24T02:43:42;7.77;;;3.30;;
6374;SDS011;35400;45.472;-122.822;2023-04-24T02:46:09;32.33;;;20.20;;
6374;SDS011;35400;45.472;-122.822;2023-04-24T02:48:36;7.93;;;5.63;;
6374;SDS011;35400;45.472;-122.822;2023-04-24T02:51:03;3.73;;;2.67;;
6374;SDS011;35400;45.472;-122.822;2023-04-24T02:53:32;7.40;;;3.40;;
6374;SDS011;35400;45.472;-122.822;2023-04-24T02:55:58;3.40;;;2.10;;
6374;SDS011;35400;45.472;-122.822;2023-04-24T02:58:25;4.30;;;3.80;;
6374;SDS011;35400;45.472;-122.822;2023-04-24T03:00:53;3.37;;;2.57;;
6374;SDS011;35400;45.472;-122.822;2023-04-24T03:03:23;5.77;;;2.40;;
6374;SDS011;35400;45.472;-122.822;2023-04-24T03:05:51;5.87;;;2.70;;
6374;SDS011;35400;45.472;-122.822;2023-04-24T03:08:18;6.83;;;2.90;;
6374;SDS011;35400;45.472;-122.822;2023-04-24T03:10:45;6.63;;;2.73;;
6374;SDS011;35400;45.472;-122.822;2023-04-24T03:13:15;5.33;;;2.73;;
6374;SDS011;35400;45.472;-122.822;2023-04-24T03:15:42;4.93;;;2.50;;
6374;SDS011;35400;45.472;-122.822;2023-04-24T03:18:10;6.07;;;2.67;;
6374;SDS011;35400;45.472;-122.822;2023-04-24T03:20:37;6.03;;;3.00;;
6374;SDS011;35400;45.472;-122.822;2023-04-24T03:23:04;6.27;;;2.93;;
6374;SDS011;35400;45.472;-122.822;2023-04-24T03:25:31;3.63;;;2.27;;
6374;SDS011;35400;45.472;-122.822;2023-04-24T03:27:58;6.50;;;3.10;;
6374;SDS011;35400;45.472;-122.822;2023-04-24T03:30:36;4.43;;;2.73;;
6374;SDS011;35400;45.472;-122.822;2023-04-24T03:33:03;4.37;;;2.10;;
6374;SDS011;35400;45.472;-122.822;2023-04-24T03:35:35;5.73;;;2.50;;
6374;SDS011;35400;45.472;-122.822;2023-04-24T03:38:06;7.93;;;4.53;;
6374;SDS011;35400;45.472;-122.822;2023-04-24T03:40:54;11.43;;;4.20;;
6374;SDS011;35400;45.472;-122.822;2023-04-24T03:43:38;7.70;;;2.87;;
6374;SDS011;35400;45.472;-122.822;2023-04-24T03:46:05;4.57;;;2.73;;
6374;SDS011;35400;45.472;-122.822;2023-04-24T03:48:39;9.23;;;3.70;;
6374;SDS011;35400;45.472;-122.822;2023-04-24T03:51:08;7.07;;;2.63;;
6374;SDS011;35400;45.472;-122.822;2023-04-24T03:53:36;4.77;;;2.47;;
6374;SDS011;35400;45.472;-122.822;2023-04-24T03:56:03;4.60;;;2.77;;
6374;SDS011;35400;45.472;-122.822;2023-04-24T03:58:32;6.47;;;2.97;;
6374;SDS011;35400;45.472;-122.822;2023-04-24T04:00:59;5.53;;;2.80;;
6374;SDS011;35400;45.472;-122.822;2023-04-24T04:03:58;7.50;;;3.87;;
6374;SDS011;35400;45.472;-122.822;2023-04-24T04:06:26;8.37;;;3.60;;
6374;SDS011;35400;45.472;-122.822;2023-04-24T04:08:55;8.27;;;3.47;;
6374;SDS011;35400;45.472;-122.822;2023-04-24T04:11:23;9.13;;;3.23;;
6374;SDS011;35400;45.472;-122.822;2023-04-24T04:13:50;6.80;;;3.40;;
6374;SDS011;35400;45.472;-122.822;2023-04-24T04:16:20;12.20;;;3.63;;
6374;SDS011;35400;45.472;-122.822;2023-04-24T04:18:49;7.17;;;2.70;;
6374;SDS011;35400;45.472;-122.822;2023-04-24T04:21:16;5.37;;;3.57;;
6374;SDS011;35400;45.472;-122.822;2023-04-24T04:23:43;6.80;;;3.00;;
6374;SDS011;35400;45.472;-122.822;2023-04-24T04:26:19;8.63;;;3.07;;
6374;SDS011;35400;45.472;-122.822;2023-04-24T04:28:58;6.57;;;3.20;;
6374;SDS011;35400;45.472;-122.822;2023-04-24T04:31:30;8.27;;;3.47;;
6374;SDS011;35400;45.472;-122.822;2023-04-24T04:34:00;5.30;;;3.17;;
6374;SDS011;35400;45.472;-122.822;2023-04-24T04:36:29;7.93;;;2.87;;
6374;SDS011;35400;45.472;-122.822;2023-04-24T04:39:06;5.87;;;2.70;;
6374;SDS011;35400;45.472;-122.822;2023-04-24T04:41:44;7.73;;;2.70;;
6374;SDS011;35400;45.472;-122.822;2023-04-24T04:44:16;7.23;;;2.57;;
6374;SDS011;35400;45.472;-122.822;2023-04-24T04:46:43;7.07;;;2.67;;
6374;SDS011;35400;45.472;-122.822;2023-04-24T04:49:20;3.90;;;2.90;;
6374;SDS011;35400;45.472;-122.822;2023-04-24T04:51:50;4.77;;;2.40;;
6374;SDS011;35400;45.472;-122.822;2023-04-24T04:54:18;3.63;;;2.17;;
6374;SDS011;35400;45.472;-122.822;2023-04-24T04:56:45;7.73;;;3.03;;
6374;SDS011;35400;45.472;-122.822;2023-04-24T04:59:12;7.60;;;3.43;;
6374;SDS011;35400;45.472;-122.822;2023-04-24T05:01:39;7.40;;;2.53;;
6374;SDS011;35400;45.472;-122.822;2023-04-24T05:04:07;7.23;;;2.30;;
6374;SDS011;35400;45.472;-122.822;2023-04-24T05:06:36;9.23;;;3.17;;
6374;SDS011;35400;45.472;-122.822;2023-04-24T05:09:04;11.33;;;2.90;;
6374;SDS011;35400;45.472;-122.822;2023-04-24T05:11:54;8.27;;;3.27;;
6374;SDS011;35400;45.472;-122.822;2023-04-24T05:14:23;7.67;;;3.10;;
6374;SDS011;35400;45.472;-122.822;2023-04-24T05:16:50;11.20;;;2.97;;
6374;SDS011;35400;45.472;-122.822;2023-04-24T05:19:19;7.17;;;2.80;;
6374;SDS011;35400;45.472;-122.822;2023-04-24T05:21:46;5.67;;;2.80;;
6374;SDS011;35400;45.472;-122.822;2023-04-24T05:24:14;7.80;;;3.40;;
6374;SDS011;35400;45.472;-122.822;2023-04-24T05:26:51;9.30;;;2.63;;
6374;SDS011;35400;45.472;-122.822;2023-04-24T05:29:23;5.53;;;2.67;;
6374;SDS011;35400;45.472;-122.822;2023-04-24T05:31:52;7.83;;;2.90;;
6374;SDS011;35400;45.472;-122.822;2023-04-24T05:34:19;6.30;;;3.03;;
6374;SDS011;35400;45.472;-122.822;2023-04-24T05:36:51;7.53;;;3.70;;
6374;SDS011;35400;45.472;-122.822;2023-04-24T05:39:19;3.77;;;2.83;;
6374;SDS011;35400;45.472;-122.822;2023-04-24T05:41:46;8.20;;;3.17;;
6374;SDS011;35400;45.472;-122.822;2023-04-24T05:44:13;6.23;;;2.33;;
6374;SDS011;35400;45.472;-122.822;2023-04-24T05:46:41;5.07;;;2.80;;
6374;SDS011;35400;45.472;-122.822;2023-04-24T05:49:09;6.23;;;2.47;;
6374;SDS011;35400;45.472;-122.822;2023-04-24T05:51:37;7.83;;;2.73;;
6374;SDS011;35400;45.472;-122.822;2023-04-24T05:54:05;5.37;;;2.73;;
6374;SDS011;35400;45.472;-122.822;2023-04-24T05:56:32;8.70;;;2.67;;
6374;SDS011;35400;45.472;-122.822;2023-04-24T05:59:02;7.40;;;2.57;;
6374;SDS011;35400;45.472;-122.822;2023-04-24T06:01:29;5.67;;;2.27;;
6374;SDS011;35400;45.472;-122.822;2023-04-24T06:04:05;4.87;;;2.70;;
6374;SDS011;35400;45.472;-122.822;2023-04-24T06:06:32;6.90;;;3.00;;
6374;SDS011;35400;45.472;-122.822;2023-04-24T06:09:00;4.97;;;2.47;;
6374;SDS011;35400;45.472;-122.822;2023-04-24T06:11:28;6.60;;;2.40;;
6374;SDS011;35400;45.472;-122.822;2023-04-24T06:13:55;6.17;;;2.40;;
6374;SDS011;35400;45.472;-122.822;2023-04-24T06:16:54;3.93;;;2.30;;
6374;SDS011;35400;45.472;-122.822;2023-04-24T06:19:31;5.10;;;2.43;;
6374;SDS011;35400;45.472;-122.822;2023-04-24T06:21:58;6.43;;;2.53;;
6374;SDS011;35400;45.472;-122.822;2023-04-24T06:24:28;4.80;;;2.47;;
6374;SDS011;35400;45.472;-122.822;2023-04-24T06:26:57;6.40;;;2.33;;
6374;SDS011;35400;45.472;-122.822;2023-04-24T06:29:25;4.27;;;2.37;;
6374;SDS011;35400;45.472;-122.822;2023-04-24T06:31:52;5.43;;;2.20;;
6374;SDS011;35400;45.472;-122.822;2023-04-24T06:34:19;4.57;;;2.50;;
6374;SDS011;35400;45.472;-122.822;2023-04-24T06:36:46;4.70;;;2.30;;
6374;SDS011;35400;45.472;-122.822;2023-04-24T06:39:13;4.63;;;2.40;;
6374;SDS011;35400;45.472;-122.822;2023-04-24T06:41:40;5.80;;;2.10;;
6374;SDS011;35400;45.472;-122.822;2023-04-24T06:44:15;8.43;;;2.50;;
6374;SDS011;35400;45.472;-122.822;2023-04-24T06:46:42;5.73;;;2.60;;
6374;SDS011;35400;45.472;-122.822;2023-04-24T06:49:09;4.37;;;2.37;;
6374;SDS011;35400;45.472;-122.822;2023-04-24T06:51:36;5.47;;;2.80;;
6374;SDS011;35400;45.472;-122.822;2023-04-24T06:54:03;5.07;;;2.20;;
6374;SDS011;35400;45.472;-122.822;2023-04-24T06:56:30;5.33;;;2.37;;
6374;SDS011;35400;45.472;-122.822;2023-04-24T06:58:57;4.93;;;2.13;;
6374;SDS011;35400;45.472;-122.822;2023-04-24T07:01:24;5.53;;;2.23;;
6374;SDS011;35400;45.472;-122.822;2023-04-24T07:03:51;4.53;;;2.00;;
6374;SDS011;35400;45.472;-122.822;2023-04-24T07:06:18;3.03;;;1.80;;
6374;SDS011;35400;45.472;-122.822;2023-04-24T07:08:48;2.97;;;1.73;;
6374;SDS011;35400;45.472;-122.822;2023-04-24T07:11:15;4.97;;;1.97;;
6374;SDS011;35400;45.472;-122.822;2023-04-24T07:13:42;4.40;;;1.97;;
6374;SDS011;35400;45.472;-122.822;2023-04-24T07:16:10;3.07;;;1.90;;
6374;SDS011;35400;45.472;-122.822;2023-04-24T07:18:36;5.30;;;2.27;;
6374;SDS011;35400;45.472;-122.822;2023-04-24T07:21:05;4.00;;;1.97;;
6374;SDS011;35400;45.472;-122.822;2023-04-24T07:23:32;3.37;;;1.80;;
6374;SDS011;35400;45.472;-122.822;2023-04-24T07:25:59;5.80;;;2.13;;
6374;SDS011;35400;45.472;-122.822;2023-04-24T07:28:26;4.53;;;2.53;;
6374;SDS011;35400;45.472;-122.822;2023-04-24T07:30:56;4.63;;;2.03;;
6374;SDS011;35400;45.472;-122.822;2023-04-24T07:33:24;3.87;;;2.00;;
6374;SDS011;35400;45.472;-122.822;2023-04-24T07:35:51;5.77;;;2.40;;
6374;SDS011;35400;45.472;-122.822;2023-04-24T07:38:18;6.60;;;2.97;;
6374;SDS011;35400;45.472;-122.822;2023-04-24T07:40:48;4.20;;;2.00;;
6374;SDS011;35400;45.472;-122.822;2023-04-24T07:43:15;4.80;;;1.97;;
6374;SDS011;35400;45.472;-122.822;2023-04-24T07:45:42;3.10;;;1.93;;
6374;SDS011;35400;45.472;-122.822;2023-04-24T07:48:09;5.10;;;2.17;;
6374;SDS011;35400;45.472;-122.822;2023-04-24T07:50:36;4.13;;;2.00;;
6374;SDS011;35400;45.472;-122.822;2023-04-24T07:53:03;3.17;;;2.17;;
6374;SDS011;35400;45.472;-122.822;2023-04-24T07:55:30;8.13;;;2.07;;
6374;SDS011;35400;45.472;-122.822;2023-04-24T07:57:57;6.23;;;2.00;;
6374;SDS011;35400;45.472;-122.822;2023-04-24T08:00:24;3.20;;;1.77;;
6374;SDS011;35400;45.472;-122.822;2023-04-24T08:02:51;3.20;;;2.13;;
6374;SDS011;35400;45.472;-122.822;2023-04-24T08:05:18;6.27;;;2.37;;
6374;SDS011;35400;45.472;-122.822;2023-04-24T08:07:45;3.10;;;1.60;;
6374;SDS011;35400;45.472;-122.822;2023-04-24T08:10:14;2.50;;;1.77;;
6374;SDS011;35400;45.472;-122.822;2023-04-24T08:12:41;4.67;;;2.03;;
6374;SDS011;35400;45.472;-122.822;2023-04-24T08:15:08;2.43;;;1.53;;
6374;SDS011;35400;45.472;-122.822;2023-04-24T08:17:35;3.70;;;1.37;;
6374;SDS011;35400;45.472;-122.822;2023-04-24T08:20:03;2.30;;;1.27;;
6374;SDS011;35400;45.472;-122.822;2023-04-24T08:22:30;4.30;;;1.30;;
6374;SDS011;35400;45.472;-122.822;2023-04-24T08:24:59;1.47;;;1.10;;
6374;SDS011;35400;45.472;-122.822;2023-04-24T08:27:26;1.90;;;1.30;;
6374;SDS011;35400;45.472;-122.822;2023-04-24T08:29:53;1.43;;;0.90;;
6374;SDS011;35400;45.472;-122.822;2023-04-24T08:32:20;2.20;;;0.77;;
6374;SDS011;35400;45.472;-122.822;2023-04-24T08:34:47;1.17;;;0.73;;
6374;SDS011;35400;45.472;-122.822;2023-04-24T08:37:14;0.70;;;0.70;;
6374;SDS011;35400;45.472;-122.822;2023-04-24T08:39:41;1.13;;;1.03;;
6374;SDS011;35400;45.472;-122.822;2023-04-24T08:42:08;1.03;;;0.70;;
6374;SDS011;35400;45.472;-122.822;2023-04-24T08:44:35;1.30;;;0.80;;
6374;SDS011;35400;45.472;-122.822;2023-04-24T08:47:02;1.00;;;0.90;;
6374;SDS011;35400;45.472;-122.822;2023-04-24T08:49:30;3.67;;;0.90;;
6374;SDS011;35400;45.472;-122.822;2023-04-24T08:51:57;1.13;;;0.83;;
6374;SDS011;35400;45.472;-122.822;2023-04-24T08:54:28;2.50;;;1.17;;
6374;SDS011;35400;45.472;-122.822;2023-04-24T08:56:58;0.90;;;0.90;;
6374;SDS011;35400;45.472;-122.822;2023-04-24T08:59:29;1.40;;;0.90;;
6374;SDS011;35400;45.472;-122.822;2023-04-24T09:01:57;2.70;;;1.13;;
6374;SDS011;35400;45.472;-122.822;2023-04-24T09:04:24;1.63;;;0.90;;
6374;SDS011;35400;45.472;-122.822;2023-04-24T09:06:55;2.33;;;1.20;;
6374;SDS011;35400;45.472;-122.822;2023-04-24T09:09:26;1.13;;;0.90;;
6374;SDS011;35400;45.472;-122.822;2023-04-24T09:11:55;2.00;;;0.90;;
6374;SDS011;35400;45.472;-122.822;2023-04-24T09:14:24;1.10;;;0.97;;
6374;SDS011;35400;45.472;-122.822;2023-04-24T09:16:51;2.20;;;1.17;;
6374;SDS011;35400;45.472;-122.822;2023-04-24T09:19:18;1.07;;;0.97;;
6374;SDS011;35400;45.472;-122.822;2023-04-24T09:21:47;1.03;;;1.00;;
6374;SDS011;35400;45.472;-122.822;2023-04-24T09:24:18;1.53;;;1.00;;
6374;SDS011;35400;45.472;-122.822;2023-04-24T09:26:48;1.90;;;0.90;;
6374;SDS011;35400;45.472;-122.822;2023-04-24T09:29:23;2.13;;;0.90;;
6374;SDS011;35400;45.472;-122.822;2023-04-24T09:31:50;1.80;;;0.80;;
6374;SDS011;35400;45.472;-122.822;2023-04-24T09:34:24;0.90;;;0.73;;
6374;SDS011;35400;45.472;-122.822;2023-04-24T09:36:52;1.77;;;1.10;;
6374;SDS011;35400;45.472;-122.822;2023-04-24T09:39:20;2.00;;;0.70;;
6374;SDS011;35400;45.472;-122.822;2023-04-24T09:41:48;1.23;;;0.83;;
6374;SDS011;35400;45.472;-122.822;2023-04-24T09:44:17;1.53;;;0.73;;
6374;SDS011;35400;45.472;-122.822;2023-04-24T09:46:52;1.33;;;0.63;;
6374;SDS011;35400;45.472;-122.822;2023-04-24T09:49:24;2.53;;;0.70;;
6374;SDS011;35400;45.472;-122.822;2023-04-24T09:52:02;1.57;;;0.70;;
6374;SDS011;35400;45.472;-122.822;2023-04-24T09:54:33;0.73;;;0.60;;
6374;SDS011;35400;45.472;-122.822;2023-04-24T09:57:02;1.83;;;0.77;;
6374;SDS011;35400;45.472;-122.822;2023-04-24T09:59:29;2.73;;;0.80;;
6374;SDS011;35400;45.472;-122.822;2023-04-24T10:01:56;2.50;;;0.60;;
6374;SDS011;35400;45.472;-122.822;2023-04-24T10:04:25;1.20;;;0.70;;
6374;SDS011;35400;45.472;-122.822;2023-04-24T10:06:53;1.67;;;0.60;;
6374;SDS011;35400;45.472;-122.822;2023-04-24T10:09:22;1.00;;;0.70;;
6374;SDS011;35400;45.472;-122.822;2023-04-24T10:11:50;1.70;;;0.60;;
6374;SDS011;35400;45.472;-122.822;2023-04-24T10:14:20;3.13;;;0.77;;
6374;SDS011;35400;45.472;-122.822;2023-04-24T10:16:48;1.87;;;0.73;;
6374;SDS011;35400;45.472;-122.822;2023-04-24T10:19:16;1.60;;;0.70;;
6374;SDS011;35400;45.472;-122.822;2023-04-24T10:21:46;1.60;;;0.50;;
6374;SDS011;35400;45.472;-122.822;2023-04-24T10:24:14;2.10;;;0.70;;
6374;SDS011;35400;45.472;-122.822;2023-04-24T10:26:42;0.80;;;0.70;;
6374;SDS011;35400;45.472;-122.822;2023-04-24T10:29:11;1.47;;;0.50;;
6374;SDS011;35400;45.472;-122.822;2023-04-24T10:31:39;2.10;;;0.80;;
6374;SDS011;35400;45.472;-122.822;2023-04-24T10:34:07;0.57;;;0.57;;
6374;SDS011;35400;45.472;-122.822;2023-04-24T10:36:35;0.73;;;0.70;;
6374;SDS011;35400;45.472;-122.822;2023-04-24T10:39:07;1.17;;;0.53;;
6374;SDS011;35400;45.472;-122.822;2023-04-24T10:41:37;2.07;;;0.57;;
6374;SDS011;35400;45.472;-122.822;2023-04-24T10:44:08;1.67;;;0.80;;
6374;SDS011;35400;45.472;-122.822;2023-04-24T10:46:36;0.93;;;0.60;;
6374;SDS011;35400;45.472;-122.822;2023-04-24T10:49:05;1.10;;;0.60;;
6374;SDS011;35400;45.472;-122.822;2023-04-24T10:51:50;1.00;;;0.50;;
6374;SDS011;35400;45.472;-122.822;2023-04-24T10:54:35;0.63;;;0.50;;
6374;SDS011;35400;45.472;-122.822;2023-04-24T10:59:46;0.63;;;0.60;;
6374;SDS011;35400;45.472;-122.822;2023-04-24T11:02:14;0.97;;;0.60;;
6374;SDS011;35400;45.472;-122.822;2023-04-24T11:04:42;1.00;;;0.50;;
6374;SDS011;35400;45.472;-122.822;2023-04-24T11:07:10;1.40;;;0.70;;
6374;SDS011;35400;45.472;-122.822;2023-04-24T11:09:38;0.70;;;0.70;;
6374;SDS011;35400;45.472;-122.822;2023-04-24T11:12:11;1.47;;;0.50;;
6374;SDS011;35400;45.472;-122.822;2023-04-24T11:22:35;0.97;;;0.50;;
6374;SDS011;35400;45.472;-122.822;2023-04-24T11:25:06;1.23;;;0.80;;
6374;SDS011;35400;45.472;-122.822;2023-04-24T11:27:41;3.50;;;0.70;;
6374;SDS011;35400;45.472;-122.822;2023-04-24T11:30:09;0.90;;;0.60;;
6374;SDS011;35400;45.472;-122.822;2023-04-24T11:32:37;2.30;;;0.60;;
6374;SDS011;35400;45.472;-122.822;2023-04-24T11:35:13;0.77;;;0.50;;
6374;SDS011;35400;45.472;-122.822;2023-04-24T11:37:45;0.80;;;0.50;;
6374;SDS011;35400;45.472;-122.822;2023-04-24T11:40:14;1.00;;;0.50;;
6374;SDS011;35400;45.472;-122.822;2023-04-24T11:42:43;0.93;;;0.53;;
6374;SDS011;35400;45.472;-122.822;2023-04-24T11:45:12;1.03;;;0.53;;
6374;SDS011;35400;45.472;-122.822;2023-04-24T11:47:44;1.10;;;0.60;;
6374;SDS011;35400;45.472;-122.822;2023-04-24T11:50:12;0.60;;;0.60;;
6374;SDS011;35400;45.472;-122.822;2023-04-24T11:52:40;2.13;;;0.50;;
6374;SDS011;35400;45.472;-122.822;2023-04-24T11:55:29;1.50;;;0.60;;
6374;SDS011;35400;45.472;-122.822;2023-04-24T11:57:57;1.33;;;0.60;;
6374;SDS011;35400;45.472;-122.822;2023-04-24T12:00:26;2.70;;;0.40;;
6374;SDS011;35400;45.472;-122.822;2023-04-24T12:03:10;1.50;;;0.50;;
6374;SDS011;35400;45.472;-122.822;2023-04-24T12:05:38;1.57;;;0.43;;
6374;SDS011;35400;45.472;-122.822;2023-04-24T12:08:05;0.80;;;0.73;;
6374;SDS011;35400;45.472;-122.822;2023-04-24T12:10:32;0.67;;;0.50;;
6374;SDS011;35400;45.472;-122.822;2023-04-24T12:13:00;0.93;;;0.50;;
6374;SDS011;35400;45.472;-122.822;2023-04-24T12:15:27;1.37;;;0.57;;
6374;SDS011;35400;45.472;-122.822;2023-04-24T12:17:54;1.13;;;0.50;;
6374;SDS011;35400;45.472;-122.822;2023-04-24T12:20:26;2.50;;;0.47;;
6374;SDS011;35400;45.472;-122.822;2023-04-24T12:22:55;2.00;;;0.50;;
6374;SDS011;35400;45.472;-122.822;2023-04-24T12:25:23;0.33;;;0.33;;
6374;SDS011;35400;45.472;-122.822;2023-04-24T12:27:55;3.90;;;0.63;;
6374;SDS011;35400;45.472;-122.822;2023-04-24T12:30:32;0.63;;;0.50;;
6374;SDS011;35400;45.472;-122.822;2023-04-24T12:33:02;1.00;;;0.60;;
6374;SDS011;35400;45.472;-122.822;2023-04-24T12:35:29;1.90;;;0.50;;
6374;SDS011;35400;45.472;-122.822;2023-04-24T12:38:08;1.80;;;0.50;;
6374;SDS011;35400;45.472;-122.822;2023-04-24T12:40:38;3.03;;;0.57;;
6374;SDS011;35400;45.472;-122.822;2023-04-24T12:43:17;3.70;;;0.70;;
6374;SDS011;35400;45.472;-122.822;2023-04-24T12:45:45;1.03;;;0.70;;
6374;SDS011;35400;45.472;-122.822;2023-04-24T12:48:13;0.63;;;0.40;;
6374;SDS011;35400;45.472;-122.822;2023-04-24T12:50:41;4.17;;;0.50;;
6374;SDS011;35400;45.472;-122.822;2023-04-24T12:53:08;2.00;;;0.63;;
6374;SDS011;35400;45.472;-122.822;2023-04-24T12:55:36;2.67;;;0.90;;
6374;SDS011;35400;45.472;-122.822;2023-04-24T12:58:03;1.80;;;0.83;;
6374;SDS011;35400;45.472;-122.822;2023-04-24T13:00:29;0.60;;;0.57;;
6374;SDS011;35400;45.472;-122.822;2023-04-24T13:02:57;0.63;;;0.47;;
6374;SDS011;35400;45.472;-122.822;2023-04-24T13:05:24;2.03;;;0.67;;
6374;SDS011;35400;45.472;-122.822;2023-04-24T13:07:50;0.80;;;0.60;;
6374;SDS011;35400;45.472;-122.822;2023-04-24T13:10:17;1.03;;;0.50;;
6374;SDS011;35400;45.472;-122.822;2023-04-24T13:12:44;1.43;;;0.40;;
6374;SDS011;35400;45.472;-122.822;2023-04-24T13:15:12;4.20;;;0.90;;
6374;SDS011;35400;45.472;-122.822;2023-04-24T13:17:39;3.77;;;0.60;;
6374;SDS011;35400;45.472;-122.822;2023-04-24T13:20:06;1.13;;;0.60;;
6374;SDS011;35400;45.472;-122.822;2023-04-24T13:22:33;2.47;;;0.60;;
6374;SDS011;35400;45.472;-122.822;2023-04-24T13:25:00;1.47;;;0.60;;
6374;SDS011;35400;45.472;-122.822;2023-04-24T13:27:27;3.63;;;0.57;;
6374;SDS011;35400;45.472;-122.822;2023-04-24T13:29:53;1.60;;;0.70;;
6374;SDS011;35400;45.472;-122.822;2023-04-24T13:32:20;1.50;;;0.63;;
6374;SDS011;35400;45.472;-122.822;2023-04-24T13:34:47;0.97;;;0.50;;
6374;SDS011;35400;45.472;-122.822;2023-04-24T13:37:14;3.37;;;0.80;;
6374;SDS011;35400;45.472;-122.822;2023-04-24T13:39:41;2.87;;;0.70;;
6374;SDS011;35400;45.472;-122.822;2023-04-24T13:42:08;2.47;;;0.50;;
6374;SDS011;35400;45.472;-122.822;2023-04-24T13:44:35;1.67;;;0.60;;
6374;SDS011;35400;45.472;-122.822;2023-04-24T13:47:02;4.43;;;0.70;;
6374;SDS011;35400;45.472;-122.822;2023-04-24T13:49:29;3.40;;;0.70;;
6374;SDS011;35400;45.472;-122.822;2023-04-24T13:51:56;1.50;;;0.50;;
6374;SDS011;35400;45.472;-122.822;2023-04-24T13:54:23;1.13;;;0.50;;
6374;SDS011;35400;45.472;-122.822;2023-04-24T13:56:51;2.13;;;0.50;;
6374;SDS011;35400;45.472;-122.822;2023-04-24T13:59:19;1.30;;;0.40;;
6374;SDS011;35400;45.472;-122.822;2023-04-24T14:01:47;0.50;;;0.50;;
6374;SDS011;35400;45.472;-122.822;2023-04-24T14:04:14;1.50;;;0.80;;
6374;SDS011;35400;45.472;-122.822;2023-04-24T14:06:40;2.10;;;0.57;;
6374;SDS011;35400;45.472;-122.822;2023-04-24T14:09:07;0.80;;;0.43;;
6374;SDS011;35400;45.472;-122.822;2023-04-24T14:11:34;1.37;;;0.40;;
6374;SDS011;35400;45.472;-122.822;2023-04-24T14:14:01;1.80;;;0.70;;
6374;SDS011;35400;45.472;-122.822;2023-04-24T14:16:28;2.13;;;0.53;;
6374;SDS011;35400;45.472;-122.822;2023-04-24T14:18:56;3.23;;;0.60;;
6374;SDS011;35400;45.472;-122.822;2023-04-24T14:21:22;2.40;;;0.60;;
6374;SDS011;35400;45.472;-122.822;2023-04-24T14:23:50;1.37;;;0.50;;
6374;SDS011;35400;45.472;-122.822;2023-04-24T14:26:16;1.63;;;0.80;;
6374;SDS011;35400;45.472;-122.822;2023-04-24T14:28:43;1.40;;;0.50;;
6374;SDS011;35400;45.472;-122.822;2023-04-24T14:31:10;3.33;;;1.40;;
6374;SDS011;35400;45.472;-122.822;2023-04-24T14:33:37;4.90;;;1.87;;
6374;SDS011;35400;45.472;-122.822;2023-04-24T14:36:03;4.87;;;2.90;;
6374;SDS011;35400;45.472;-122.822;2023-04-24T14:38:31;2.50;;;1.50;;
6374;SDS011;35400;45.472;-122.822;2023-04-24T14:40:58;4.00;;;0.77;;